Terminal Aerodrome Forecast
Issued by NWS Wilmington, NC

Home | Current Version | Previous Version | Text Only | Print | Product List | Glossary On
Versions: 1 2 3 4 5 6 7 8 9 10 11 12 13 14 15 16 17 18
000
FTUS42 KILM 010500
TAFILM
TAF
KILM 010520Z 0106/0206 02004KT P6SM SKC
     FM011000 00000KT 5SM BR SKC
     FM011300 01007KT P6SM SCT250
     FM012000 12006KT P6SM SCT250=

USA.gov is the U.S. government's official web portal to all federal, state and local government web resources and services.